sensor_id;sensor_type;location;lat;lon;timestamp;pressure;altitude;pressure_sealevel;temperature;humidity
79127;BME280;68528;48.814;8.904;2023-03-16T00:01:25;96742.50;;;-2.85;89.70
79127;BME280;68528;48.814;8.904;2023-03-16T00:03:52;96738.22;;;-2.86;89.56
79127;BME280;68528;48.814;8.904;2023-03-16T00:06:17;96744.66;;;-2.87;89.37
79127;BME280;68528;48.814;8.904;2023-03-16T00:09:16;96744.66;;;-2.87;88.70
79127;BME280;68528;48.814;8.904;2023-03-16T00:11:42;96741.44;;;-2.89;89.11
79127;BME280;68528;48.814;8.904;2023-03-16T00:14:07;96751.88;;;-2.93;89.12
79127;BME280;68528;48.814;8.904;2023-03-16T00:16:38;96743.03;;;-2.93;88.99
79127;BME280;68528;48.814;8.904;2023-03-16T00:19:04;96750.28;;;-2.94;89.62
79127;BME280;68528;48.814;8.904;2023-03-16T00:21:30;96743.31;;;-2.95;89.38
79127;BME280;68528;48.814;8.904;2023-03-16T00:23:57;96743.59;;;-2.96;90.62
79127;BME280;68528;48.814;8.904;2023-03-16T00:26:38;96744.41;;;-2.96;90.57
79127;BME280;68528;48.814;8.904;2023-03-16T00:29:07;96747.06;;;-2.96;89.67
79127;BME280;68528;48.814;8.904;2023-03-16T00:31:34;96741.97;;;-2.97;89.86
79127;BME280;68528;48.814;8.904;2023-03-16T00:34:00;96746.78;;;-2.99;89.51
79127;BME280;68528;48.814;8.904;2023-03-16T00:36:27;96745.19;;;-3.00;89.61
79127;BME280;68528;48.814;8.904;2023-03-16T00:38:52;96748.41;;;-3.03;89.54
79127;BME280;68528;48.814;8.904;2023-03-16T00:41:18;96750.56;;;-3.05;89.86
79127;BME280;68528;48.814;8.904;2023-03-16T00:43:43;96746.28;;;-3.06;89.69
79127;BME280;68528;48.814;8.904;2023-03-16T00:46:15;96740.94;;;-3.06;90.13
79127;BME280;68528;48.814;8.904;2023-03-16T00:48:46;96742.25;;;-3.09;90.02
79127;BME280;68528;48.814;8.904;2023-03-16T00:51:14;96735.28;;;-3.10;89.85
79127;BME280;68528;48.814;8.904;2023-03-16T00:53:44;96739.28;;;-3.12;91.11
79127;BME280;68528;48.814;8.904;2023-03-16T00:56:10;96737.19;;;-3.10;90.19
79127;BME280;68528;48.814;8.904;2023-03-16T00:58:38;96733.94;;;-3.12;89.81
79127;BME280;68528;48.814;8.904;2023-03-16T01:01:13;96728.34;;;-3.11;90.19
79127;BME280;68528;48.814;8.904;2023-03-16T01:03:45;96732.34;;;-3.13;89.78
79127;BME280;68528;48.814;8.904;2023-03-16T01:06:12;96726.47;;;-3.15;89.36
79127;BME280;68528;48.814;8.904;2023-03-16T01:08:40;96725.13;;;-3.18;89.43
79127;BME280;68528;48.814;8.904;2023-03-16T01:11:27;96727.53;;;-3.22;89.34
79127;BME280;68528;48.814;8.904;2023-03-16T01:13:53;96721.66;;;-3.24;89.60
79127;BME280;68528;48.814;8.904;2023-03-16T01:16:18;96732.38;;;-3.24;89.14
79127;BME280;68528;48.814;8.904;2023-03-16T01:18:44;96729.13;;;-3.21;89.64
79127;BME280;68528;48.814;8.904;2023-03-16T01:21:10;96736.09;;;-3.25;89.16
79127;BME280;68528;48.814;8.904;2023-03-16T01:23:42;96724.84;;;-3.27;89.72
79127;BME280;68528;48.814;8.904;2023-03-16T01:26:10;96718.16;;;-3.29;90.57
79127;BME280;68528;48.814;8.904;2023-03-16T01:28:36;96720.06;;;-3.30;89.82
79127;BME280;68528;48.814;8.904;2023-03-16T01:31:08;96716.03;;;-3.32;89.48
79127;BME280;68528;48.814;8.904;2023-03-16T01:33:36;96709.34;;;-3.35;89.48
79127;BME280;68528;48.814;8.904;2023-03-16T01:36:13;96712.53;;;-3.38;89.03
79127;BME280;68528;48.814;8.904;2023-03-16T01:39:21;96713.06;;;-3.36;89.24
79127;BME280;68528;48.814;8.904;2023-03-16T01:42:08;96714.16;;;-3.37;88.95
79127;BME280;68528;48.814;8.904;2023-03-16T01:44:51;96702.63;;;-3.37;89.52
79127;BME280;68528;48.814;8.904;2023-03-16T01:47:18;96702.91;;;-3.44;90.29
79127;BME280;68528;48.814;8.904;2023-03-16T01:49:45;96712.56;;;-3.43;90.20
79127;BME280;68528;48.814;8.904;2023-03-16T01:52:16;96715.22;;;-3.43;89.56
79127;BME280;68528;48.814;8.904;2023-03-16T01:54:57;96698.09;;;-3.47;89.19
79127;BME280;68528;48.814;8.904;2023-03-16T01:57:31;96706.91;;;-3.46;89.71
79127;BME280;68528;48.814;8.904;2023-03-16T02:00:19;96704.78;;;-3.49;89.30
79127;BME280;68528;48.814;8.904;2023-03-16T02:03:14;96703.16;;;-3.50;89.20
79127;BME280;68528;48.814;8.904;2023-03-16T02:05:53;96699.72;;;-3.51;89.34
79127;BME280;68528;48.814;8.904;2023-03-16T02:08:23;96691.69;;;-3.51;89.02
79127;BME280;68528;48.814;8.904;2023-03-16T02:10:48;96695.66;;;-3.48;90.02
79127;BME280;68528;48.814;8.904;2023-03-16T02:13:20;96690.59;;;-3.50;89.93
79127;BME280;68528;48.814;8.904;2023-03-16T02:15:47;96697.56;;;-3.49;90.47
79127;BME280;68528;48.814;8.904;2023-03-16T02:18:15;96691.38;;;-3.44;90.03
79127;BME280;68528;48.814;8.904;2023-03-16T02:23:31;96697.03;;;-3.41;90.42
79127;BME280;68528;48.814;8.904;2023-03-16T02:26:14;96702.88;;;-3.34;91.05
79127;BME280;68528;48.814;8.904;2023-03-16T02:31:42;96703.19;;;-3.30;91.11
79127;BME280;68528;48.814;8.904;2023-03-16T02:34:15;96694.06;;;-3.29;91.38
79127;BME280;68528;48.814;8.904;2023-03-16T02:37:03;96696.19;;;-3.31;90.68
79127;BME280;68528;48.814;8.904;2023-03-16T02:39:33;96685.75;;;-3.33;90.79
79127;BME280;68528;48.814;8.904;2023-03-16T02:42:00;96684.16;;;-3.34;90.77
79127;BME280;68528;48.814;8.904;2023-03-16T02:44:30;96678.81;;;-3.39;89.99
79127;BME280;68528;48.814;8.904;2023-03-16T02:47:04;96678.53;;;-3.37;90.07
79127;BME280;68528;48.814;8.904;2023-03-16T02:49:35;96674.25;;;-3.33;91.23
79127;BME280;68528;48.814;8.904;2023-03-16T02:52:25;96663.00;;;-3.35;90.50
79127;BME280;68528;48.814;8.904;2023-03-16T02:54:50;96659.53;;;-3.26;91.18
79127;BME280;68528;48.814;8.904;2023-03-16T02:57:15;96668.63;;;-3.27;90.92
79127;BME280;68528;48.814;8.904;2023-03-16T02:59:41;96674.00;;;-3.32;90.51
79127;BME280;68528;48.814;8.904;2023-03-16T03:02:06;96671.56;;;-3.28;91.03
79127;BME280;68528;48.814;8.904;2023-03-16T03:04:32;96658.97;;;-3.17;92.20
79127;BME280;68528;48.814;8.904;2023-03-16T03:06:57;96672.88;;;-3.15;91.60
79127;BME280;68528;48.814;8.904;2023-03-16T03:09:28;96665.38;;;-3.13;91.83
79127;BME280;68528;48.814;8.904;2023-03-16T03:11:53;96669.13;;;-3.14;91.19
79127;BME280;68528;48.814;8.904;2023-03-16T03:14:22;96670.22;;;-3.15;91.85
79127;BME280;68528;48.814;8.904;2023-03-16T03:16:52;96673.44;;;-3.08;92.30
79127;BME280;68528;48.814;8.904;2023-03-16T03:19:39;96668.59;;;-3.11;91.54
79127;BME280;68528;48.814;8.904;2023-03-16T03:22:05;96651.72;;;-3.12;90.90
79127;BME280;68528;48.814;8.904;2023-03-16T03:24:32;96647.69;;;-3.09;90.54
79127;BME280;68528;48.814;8.904;2023-03-16T03:26:58;96650.09;;;-2.98;92.61
79127;BME280;68528;48.814;8.904;2023-03-16T03:29:25;96644.97;;;-2.99;91.52
79127;BME280;68528;48.814;8.904;2023-03-16T03:32:01;96651.97;;;-2.98;91.51
79127;BME280;68528;48.814;8.904;2023-03-16T03:34:28;96642.06;;;-2.98;92.48
79127;BME280;68528;48.814;8.904;2023-03-16T03:36:53;96634.75;;;-2.82;93.61
79127;BME280;68528;48.814;8.904;2023-03-16T03:39:20;96651.34;;;-2.80;93.01
79127;BME280;68528;48.814;8.904;2023-03-16T03:41:46;96648.13;;;-2.77;92.96
79127;BME280;68528;48.814;8.904;2023-03-16T03:44:11;96646.19;;;-2.62;93.53
79127;BME280;68528;48.814;8.904;2023-03-16T03:46:37;96637.03;;;-2.51;94.05
79127;BME280;68528;48.814;8.904;2023-03-16T03:49:02;96640.22;;;-2.49;93.28
79127;BME280;68528;48.814;8.904;2023-03-16T03:51:30;96623.03;;;-2.43;92.39
79127;BME280;68528;48.814;8.904;2023-03-16T03:53:57;96623.31;;;-2.44;92.94
79127;BME280;68528;48.814;8.904;2023-03-16T03:56:22;96623.59;;;-2.46;92.75
79127;BME280;68528;48.814;8.904;2023-03-16T03:58:48;96627.06;;;-2.40;92.42
79127;BME280;68528;48.814;8.904;2023-03-16T04:01:13;96626.25;;;-2.41;92.40
79127;BME280;68528;48.814;8.904;2023-03-16T04:03:38;96626.53;;;-2.47;91.24
79127;BME280;68528;48.814;8.904;2023-03-16T04:06:04;96632.41;;;-2.35;93.07
79127;BME280;68528;48.814;8.904;2023-03-16T04:08:31;96635.63;;;-2.38;92.42
79127;BME280;68528;48.814;8.904;2023-03-16T04:10:57;96622.78;;;-2.41;92.16
79127;BME280;68528;48.814;8.904;2023-03-16T04:13:28;96620.63;;;-2.44;93.09
79127;BME280;68528;48.814;8.904;2023-03-16T04:15:58;96623.84;;;-2.42;93.13
79127;BME280;68528;48.814;8.904;2023-03-16T04:18:24;96619.28;;;-2.42;92.81
79127;BME280;68528;48.814;8.904;2023-03-16T04:20:50;96620.63;;;-2.39;92.53
79127;BME280;68528;48.814;8.904;2023-03-16T04:23:23;96616.91;;;-2.43;92.84
79127;BME280;68528;48.814;8.904;2023-03-16T04:25:49;96625.47;;;-2.41;92.42
79127;BME280;68528;48.814;8.904;2023-03-16T04:28:16;96624.38;;;-2.40;92.40
79127;BME280;68528;48.814;8.904;2023-03-16T04:30:42;96624.38;;;-2.40;93.29
79127;BME280;68528;48.814;8.904;2023-03-16T04:33:08;96621.72;;;-2.45;92.73
79127;BME280;68528;48.814;8.904;2023-03-16T04:35:33;96620.09;;;-2.41;92.78
79127;BME280;68528;48.814;8.904;2023-03-16T04:37:59;96609.91;;;-2.44;92.93
79127;BME280;68528;48.814;8.904;2023-03-16T04:40:24;96612.06;;;-2.46;92.83
79127;BME280;68528;48.814;8.904;2023-03-16T04:42:55;96612.06;;;-2.46;92.79
79127;BME280;68528;48.814;8.904;2023-03-16T04:45:20;96618.47;;;-2.42;91.65
79127;BME280;68528;48.814;8.904;2023-03-16T04:47:45;96619.59;;;-2.48;92.77
79127;BME280;68528;48.814;8.904;2023-03-16T04:50:11;96614.53;;;-2.55;92.86
79127;BME280;68528;48.814;8.904;2023-03-16T04:52:37;96613.19;;;-2.52;92.89
79127;BME280;68528;48.814;8.904;2023-03-16T04:55:03;96611.53;;;-2.48;92.17
79127;BME280;68528;48.814;8.904;2023-03-16T04:57:30;96604.03;;;-2.51;91.54
79127;BME280;68528;48.814;8.904;2023-03-16T04:59:56;96607.00;;;-2.53;92.08
79127;BME280;68528;48.814;8.904;2023-03-16T05:02:21;96616.41;;;-2.55;91.99
79127;BME280;68528;48.814;8.904;2023-03-16T05:04:55;96611.84;;;-2.50;91.24
79127;BME280;68528;48.814;8.904;2023-03-16T05:07:31;96615.34;;;-2.54;91.74
79127;BME280;68528;48.814;8.904;2023-03-16T05:10:18;96611.84;;;-2.60;91.11
79127;BME280;68528;48.814;8.904;2023-03-16T05:12:44;96602.00;;;-2.64;91.37
79127;BME280;68528;48.814;8.904;2023-03-16T05:15:10;96608.63;;;-2.52;90.38
79127;BME280;68528;48.814;8.904;2023-03-16T05:17:36;96611.03;;;-2.50;89.50
79127;BME280;68528;48.814;8.904;2023-03-16T05:20:09;96606.47;;;-2.50;89.96
79127;BME280;68528;48.814;8.904;2023-03-16T05:22:43;96610.22;;;-2.51;89.93
79127;BME280;68528;48.814;8.904;2023-03-16T05:25:10;96607.28;;;-2.54;89.05
79127;BME280;68528;48.814;8.904;2023-03-16T05:27:50;96610.50;;;-2.57;89.36
79127;BME280;68528;48.814;8.904;2023-03-16T05:30:17;96606.78;;;-2.61;90.34
79127;BME280;68528;48.814;8.904;2023-03-16T05:32:43;96610.81;;;-2.64;90.21
79127;BME280;68528;48.814;8.904;2023-03-16T05:35:10;96591.53;;;-2.66;90.10
79127;BME280;68528;48.814;8.904;2023-03-16T05:37:39;96603.06;;;-2.65;90.29
79127;BME280;68528;48.814;8.904;2023-03-16T05:40:07;96598.78;;;-2.66;90.03
79127;BME280;68528;48.814;8.904;2023-03-16T05:42:39;96598.78;;;-2.66;90.00
79127;BME280;68528;48.814;8.904;2023-03-16T05:45:05;96602.75;;;-2.64;90.78
79127;BME280;68528;48.814;8.904;2023-03-16T05:47:31;96595.00;;;-2.60;90.88
79127;BME280;68528;48.814;8.904;2023-03-16T05:49:57;96585.06;;;-2.60;89.54
79127;BME280;68528;48.814;8.904;2023-03-16T05:52:22;96582.13;;;-2.58;90.24
79127;BME280;68528;48.814;8.904;2023-03-16T05:54:49;96597.09;;;-2.57;90.41
79127;BME280;68528;48.814;8.904;2023-03-16T05:57:16;96587.47;;;-2.58;90.78
79127;BME280;68528;48.814;8.904;2023-03-16T06:00:05;96587.22;;;-2.62;90.79
79127;BME280;68528;48.814;8.904;2023-03-16T06:02:40;96589.56;;;-2.50;90.23
79127;BME280;68528;48.814;8.904;2023-03-16T06:05:06;96585.25;;;-2.46;91.24
79127;BME280;68528;48.814;8.904;2023-03-16T06:07:33;96583.91;;;-2.44;90.54
79127;BME280;68528;48.814;8.904;2023-03-16T06:09:58;96580.34;;;-2.34;90.61
79127;BME280;68528;48.814;8.904;2023-03-16T06:12:24;96581.91;;;-2.28;90.42
79127;BME280;68528;48.814;8.904;2023-03-16T06:14:52;96589.69;;;-2.26;90.53
79127;BME280;68528;48.814;8.904;2023-03-16T06:17:17;96591.56;;;-2.27;90.60
79127;BME280;68528;48.814;8.904;2023-03-16T06:19:42;96595.53;;;-2.19;90.49
79127;BME280;68528;48.814;8.904;2023-03-16T06:22:08;96594.72;;;-2.15;89.32
79127;BME280;68528;48.814;8.904;2023-03-16T06:24:33;96601.28;;;-1.97;89.18
79127;BME280;68528;48.814;8.904;2023-03-16T06:26:59;96597.50;;;-1.91;89.12
79127;BME280;68528;48.814;8.904;2023-03-16T06:29:24;96601.31;;;-1.69;88.25
79127;BME280;68528;48.814;8.904;2023-03-16T06:31:49;96595.59;;;-1.05;85.62
79127;BME280;68528;48.814;8.904;2023-03-16T06:34:16;96595.41;;;-0.24;83.37
79127;BME280;68528;48.814;8.904;2023-03-16T06:36:42;96598.28;;;0.49;79.78
79127;BME280;68528;48.814;8.904;2023-03-16T06:39:07;96583.88;;;0.72;79.05
79127;BME280;68528;48.814;8.904;2023-03-16T06:41:34;96580.81;;;1.33;76.57
79127;BME280;68528;48.814;8.904;2023-03-16T06:44:00;96579.84;;;1.79;74.39
79127;BME280;68528;48.814;8.904;2023-03-16T06:46:26;96584.91;;;1.94;74.87
79127;BME280;68528;48.814;8.904;2023-03-16T06:48:51;96589.25;;;2.17;73.28
79127;BME280;68528;48.814;8.904;2023-03-16T06:51:18;96588.53;;;2.47;73.23
79127;BME280;68528;48.814;8.904;2023-03-16T06:53:44;96584.81;;;2.43;72.49
79127;BME280;68528;48.814;8.904;2023-03-16T06:56:09;96590.97;;;2.57;71.56
79127;BME280;68528;48.814;8.904;2023-03-16T06:58:35;96585.59;;;2.66;72.50
79127;BME280;68528;48.814;8.904;2023-03-16T07:01:04;96590.31;;;2.82;71.42
79127;BME280;68528;48.814;8.904;2023-03-16T07:03:30;96594.38;;;3.33;69.49
79127;BME280;68528;48.814;8.904;2023-03-16T07:05:56;96589.50;;;2.82;71.10
79127;BME280;68528;48.814;8.904;2023-03-16T07:08:22;96589.16;;;3.05;70.41
79127;BME280;68528;48.814;8.904;2023-03-16T07:10:49;96590.41;;;3.39;69.72
79127;BME280;68528;48.814;8.904;2023-03-16T07:13:15;96593.63;;;3.49;68.60
79127;BME280;68528;48.814;8.904;2023-03-16T07:15:40;96596.78;;;3.43;68.80
79127;BME280;68528;48.814;8.904;2023-03-16T07:18:09;96594.84;;;3.35;71.87
79127;BME280;68528;48.814;8.904;2023-03-16T07:20:54;96593.84;;;3.87;67.87
79127;BME280;68528;48.814;8.904;2023-03-16T07:23:19;96594.84;;;4.25;66.84
79127;BME280;68528;48.814;8.904;2023-03-16T07:25:45;96596.13;;;4.19;67.36
79127;BME280;68528;48.814;8.904;2023-03-16T07:28:10;96603.28;;;4.75;66.61
79127;BME280;68528;48.814;8.904;2023-03-16T07:30:50;96605.41;;;5.16;65.33
79127;BME280;68528;48.814;8.904;2023-03-16T07:33:21;96601.16;;;5.73;64.97
79127;BME280;68528;48.814;8.904;2023-03-16T07:35:46;96596.75;;;6.18;62.91
79127;BME280;68528;48.814;8.904;2023-03-16T07:38:11;96606.41;;;5.87;62.15
79127;BME280;68528;48.814;8.904;2023-03-16T07:40:40;96602.03;;;6.15;63.07
79127;BME280;68528;48.814;8.904;2023-03-16T07:43:07;96603.94;;;5.65;61.55
79127;BME280;68528;48.814;8.904;2023-03-16T07:45:33;96614.84;;;5.10;65.29
79127;BME280;68528;48.814;8.904;2023-03-16T07:48:04;96609.59;;;5.51;65.52
79127;BME280;68528;48.814;8.904;2023-03-16T07:50:33;96603.25;;;5.38;63.76
79127;BME280;68528;48.814;8.904;2023-03-16T07:52:59;96612.63;;;5.87;65.39
79127;BME280;68528;48.814;8.904;2023-03-16T07:55:24;96603.47;;;5.92;62.13
79127;BME280;68528;48.814;8.904;2023-03-16T07:57:50;96605.41;;;5.53;63.87
79127;BME280;68528;48.814;8.904;2023-03-16T08:00:15;96599.94;;;6.41;63.44
79127;BME280;68528;48.814;8.904;2023-03-16T08:02:41;96603.75;;;5.70;63.60
79127;BME280;68528;48.814;8.904;2023-03-16T08:05:14;96606.72;;;5.85;64.78
79127;BME280;68528;48.814;8.904;2023-03-16T08:08:03;96610.25;;;6.06;61.83
79127;BME280;68528;48.814;8.904;2023-03-16T08:10:50;96606.69;;;6.56;61.88
79127;BME280;68528;48.814;8.904;2023-03-16T08:13:18;96608.03;;;6.50;60.29
79127;BME280;68528;48.814;8.904;2023-03-16T08:15:47;96612.22;;;6.26;61.02
79127;BME280;68528;48.814;8.904;2023-03-16T08:18:13;96615.50;;;5.82;62.74
79127;BME280;68528;48.814;8.904;2023-03-16T08:20:38;96604.94;;;5.51;64.37
79127;BME280;68528;48.814;8.904;2023-03-16T08:23:08;96607.34;;;5.82;63.92
79127;BME280;68528;48.814;8.904;2023-03-16T08:25:58;96597.13;;;6.08;63.81
79127;BME280;68528;48.814;8.904;2023-03-16T08:28:45;96589.69;;;5.68;63.83
79127;BME280;68528;48.814;8.904;2023-03-16T08:31:13;96580.44;;;5.60;64.54
79127;BME280;68528;48.814;8.904;2023-03-16T08:33:44;96575.53;;;6.32;63.27
79127;BME280;68528;48.814;8.904;2023-03-16T08:36:11;96577.78;;;5.14;64.54
79127;BME280;68528;48.814;8.904;2023-03-16T08:38:38;96581.69;;;5.42;65.61
79127;BME280;68528;48.814;8.904;2023-03-16T08:41:08;96578.06;;;5.58;62.48
79127;BME280;68528;48.814;8.904;2023-03-16T08:43:36;96568.94;;;5.63;65.12
79127;BME280;68528;48.814;8.904;2023-03-16T08:46:02;96576.34;;;5.16;65.79
79127;BME280;68528;48.814;8.904;2023-03-16T08:48:30;96570.59;;;5.47;63.70
79127;BME280;68528;48.814;8.904;2023-03-16T08:51:03;96570.69;;;5.68;63.43
79127;BME280;68528;48.814;8.904;2023-03-16T08:53:30;96571.28;;;5.73;63.66
79127;BME280;68528;48.814;8.904;2023-03-16T08:56:15;96576.19;;;6.29;63.51
79127;BME280;68528;48.814;8.904;2023-03-16T08:58:41;96573.03;;;6.93;59.92
79127;BME280;68528;48.814;8.904;2023-03-16T09:01:11;96578.09;;;6.82;60.33
79127;BME280;68528;48.814;8.904;2023-03-16T09:03:42;96579.88;;;6.04;60.28
79127;BME280;68528;48.814;8.904;2023-03-16T09:06:14;96559.94;;;6.00;60.99
79127;BME280;68528;48.814;8.904;2023-03-16T09:08:40;96565.31;;;5.88;60.77
79127;BME280;68528;48.814;8.904;2023-03-16T09:11:11;96561.13;;;6.11;60.95
79127;BME280;68528;48.814;8.904;2023-03-16T09:13:41;96547.91;;;7.20;59.16
79127;BME280;68528;48.814;8.904;2023-03-16T09:16:08;96551.91;;;7.47;57.41
79127;BME280;68528;48.814;8.904;2023-03-16T09:18:42;96557.00;;;7.36;58.08
79127;BME280;68528;48.814;8.904;2023-03-16T09:21:15;96574.72;;;7.30;57.75
79127;BME280;68528;48.814;8.904;2023-03-16T09:23:41;96576.34;;;6.98;57.82
79127;BME280;68528;48.814;8.904;2023-03-16T09:26:08;96566.13;;;7.07;58.89
79127;BME280;68528;48.814;8.904;2023-03-16T09:28:35;96570.06;;;7.43;58.19
79127;BME280;68528;48.814;8.904;2023-03-16T09:31:03;96563.84;;;6.97;57.26
79127;BME280;68528;48.814;8.904;2023-03-16T09:33:29;96568.91;;;6.75;57.68
79127;BME280;68528;48.814;8.904;2023-03-16T09:35:56;96562.63;;;6.62;60.59
79127;BME280;68528;48.814;8.904;2023-03-16T09:38:23;96554.50;;;6.42;59.76
79127;BME280;68528;48.814;8.904;2023-03-16T09:54:47;96538.53;;;6.85;58.43
79127;BME280;68528;48.814;8.904;2023-03-16T09:57:28;96550.78;;;6.79;58.55
79127;BME280;68528;48.814;8.904;2023-03-16T10:17:26;96540.50;;;8.45;56.03
79127;BME280;68528;48.814;8.904;2023-03-16T10:20:04;96547.69;;;7.73;55.93
79127;BME280;68528;48.814;8.904;2023-03-16T10:22:39;96542.94;;;7.70;55.86
79127;BME280;68528;48.814;8.904;2023-03-16T10:25:08;96542.81;;;7.79;55.28
79127;BME280;68528;48.814;8.904;2023-03-16T10:27:39;96535.44;;;7.55;56.66
79127;BME280;68528;48.814;8.904;2023-03-16T10:32:44;96517.50;;;7.30;54.04
79127;BME280;68528;48.814;8.904;2023-03-16T10:37:59;96507.63;;;7.13;54.11
79127;BME280;68528;48.814;8.904;2023-03-16T10:40:36;96510.41;;;6.93;55.19
79127;BME280;68528;48.814;8.904;2023-03-16T10:43:12;96508.94;;;6.95;53.35
79127;BME280;68528;48.814;8.904;2023-03-16T10:45:38;96505.34;;;7.28;54.74
79127;BME280;68528;48.814;8.904;2023-03-16T10:48:07;96498.63;;;7.73;54.13
79127;BME280;68528;48.814;8.904;2023-03-16T10:50:56;96504.97;;;7.77;54.56
79127;BME280;68528;48.814;8.904;2023-03-16T10:53:27;96512.94;;;7.82;54.16
79127;BME280;68528;48.814;8.904;2023-03-16T10:56:12;96507.66;;;8.02;56.02
79127;BME280;68528;48.814;8.904;2023-03-16T10:58:44;96497.66;;;8.06;53.63
79127;BME280;68528;48.814;8.904;2023-03-16T11:01:20;96503.91;;;8.06;52.65
79127;BME280;68528;48.814;8.904;2023-03-16T11:03:53;96512.00;;;7.90;49.30
79127;BME280;68528;48.814;8.904;2023-03-16T11:06:23;96515.22;;;7.44;51.31
79127;BME280;68528;48.814;8.904;2023-03-16T11:09:05;96505.91;;;7.33;50.38
79127;BME280;68528;48.814;8.904;2023-03-16T11:11:34;96497.16;;;7.76;53.13
79127;BME280;68528;48.814;8.904;2023-03-16T11:14:03;96502.03;;;7.82;50.18
79127;BME280;68528;48.814;8.904;2023-03-16T11:16:38;96499.66;;;7.81;48.88
79127;BME280;68528;48.814;8.904;2023-03-16T11:19:28;96505.16;;;8.09;51.10
79127;BME280;68528;48.814;8.904;2023-03-16T11:22:24;96503.47;;;7.92;50.07
79127;BME280;68528;48.814;8.904;2023-03-16T11:30:25;96501.34;;;8.13;49.29
79127;BME280;68528;48.814;8.904;2023-03-16T11:32:53;96476.09;;;8.28;49.69
79127;BME280;68528;48.814;8.904;2023-03-16T11:38:13;96480.44;;;8.29;48.33
79127;BME280;68528;48.814;8.904;2023-03-16T11:40:48;96483.34;;;8.09;47.41
79127;BME280;68528;48.814;8.904;2023-03-16T11:43:26;96475.88;;;8.33;48.96
79127;BME280;68528;48.814;8.904;2023-03-16T11:46:11;96472.56;;;8.55;50.05
79127;BME280;68528;48.814;8.904;2023-03-16T11:54:54;96458.75;;;8.64;44.93
79127;BME280;68528;48.814;8.904;2023-03-16T12:00:44;96451.00;;;8.50;48.89
79127;BME280;68528;48.814;8.904;2023-03-16T12:12:28;96458.38;;;8.50;44.96
79127;BME280;68528;48.814;8.904;2023-03-16T12:17:46;96455.97;;;8.33;45.11
79127;BME280;68528;48.814;8.904;2023-03-16T12:20:19;96462.81;;;8.27;48.92
79127;BME280;68528;48.814;8.904;2023-03-16T12:25:59;96449.63;;;8.72;44.21
79127;BME280;68528;48.814;8.904;2023-03-16T12:28:27;96440.28;;;8.73;46.21
79127;BME280;68528;48.814;8.904;2023-03-16T12:31:15;96435.19;;;8.72;43.85
79127;BME280;68528;48.814;8.904;2023-03-16T12:34:18;96433.09;;;8.81;43.30
79127;BME280;68528;48.814;8.904;2023-03-16T12:36:56;96434.28;;;8.83;43.41
79127;BME280;68528;48.814;8.904;2023-03-16T12:44:59;96418.09;;;9.06;41.88
79127;BME280;68528;48.814;8.904;2023-03-16T12:50:13;96407.13;;;9.37;42.79
79127;BME280;68528;48.814;8.904;2023-03-16T12:52:49;96410.03;;;9.28;40.09
79127;BME280;68528;48.814;8.904;2023-03-16T12:55:17;96407.44;;;9.16;41.84
79127;BME280;68528;48.814;8.904;2023-03-16T12:57:45;96419.13;;;9.17;42.62
79127;BME280;68528;48.814;8.904;2023-03-16T13:00:13;96408.56;;;9.00;41.62
79127;BME280;68528;48.814;8.904;2023-03-16T13:02:48;96413.34;;;9.03;42.46
79127;BME280;68528;48.814;8.904;2023-03-16T13:05:27;96408.94;;;8.98;42.71
79127;BME280;68528;48.814;8.904;2023-03-16T13:08:08;96408.13;;;9.13;42.59
79127;BME280;68528;48.814;8.904;2023-03-16T13:10:35;96407.13;;;9.37;43.06
79127;BME280;68528;48.814;8.904;2023-03-16T13:13:13;96395.75;;;9.35;42.36
79127;BME280;68528;48.814;8.904;2023-03-16T13:15:43;96394.28;;;9.57;41.24
79127;BME280;68528;48.814;8.904;2023-03-16T13:23:21;96394.75;;;9.43;39.22
79127;BME280;68528;48.814;8.904;2023-03-16T13:28:30;96390.13;;;9.28;40.47
79127;BME280;68528;48.814;8.904;2023-03-16T13:30:57;96390.66;;;9.52;39.83
79127;BME280;68528;48.814;8.904;2023-03-16T13:33:27;96392.06;;;9.62;40.54
79127;BME280;68528;48.814;8.904;2023-03-16T13:36:18;96382.66;;;9.98;42.41
79127;BME280;68528;48.814;8.904;2023-03-16T13:38:54;96373.22;;;9.95;40.17
79127;BME280;68528;48.814;8.904;2023-03-16T13:41:21;96377.75;;;9.88;40.38
79127;BME280;68528;48.814;8.904;2023-03-16T13:43:47;96379.06;;;9.94;39.52
79127;BME280;68528;48.814;8.904;2023-03-16T13:46:17;96369.84;;;10.02;42.85
79127;BME280;68528;48.814;8.904;2023-03-16T13:48:46;96372.63;;;10.05;40.47
79127;BME280;68528;48.814;8.904;2023-03-16T13:51:19;96374.16;;;10.03;39.16
79127;BME280;68528;48.814;8.904;2023-03-16T13:53:47;96375.03;;;10.07;38.27
79127;BME280;68528;48.814;8.904;2023-03-16T13:56:25;96369.03;;;10.01;40.51
79127;BME280;68528;48.814;8.904;2023-03-16T13:59:23;96356.63;;;10.07;41.39
79127;BME280;68528;48.814;8.904;2023-03-16T14:01:54;96356.09;;;9.98;39.58
79127;BME280;68528;48.814;8.904;2023-03-16T14:04:27;96354.38;;;9.90;39.17
79127;BME280;68528;48.814;8.904;2023-03-16T14:06:58;96354.66;;;9.85;40.30
79127;BME280;68528;48.814;8.904;2023-03-16T14:09:27;96348.69;;;9.99;40.02
79127;BME280;68528;48.814;8.904;2023-03-16T14:11:54;96358.31;;;10.12;40.71
79127;BME280;68528;48.814;8.904;2023-03-16T14:14:30;96345.22;;;9.83;40.22
79127;BME280;68528;48.814;8.904;2023-03-16T14:17:13;96339.16;;;9.93;39.60
79127;BME280;68528;48.814;8.904;2023-03-16T14:19:48;96333.19;;;9.87;39.83
79127;BME280;68528;48.814;8.904;2023-03-16T14:22:19;96333.00;;;9.77;38.16
79127;BME280;68528;48.814;8.904;2023-03-16T14:24:52;96322.91;;;9.81;38.58
79127;BME280;68528;48.814;8.904;2023-03-16T14:30:21;96323.72;;;9.81;37.81
79127;BME280;68528;48.814;8.904;2023-03-16T14:35:21;96308.56;;;10.06;38.01
79127;BME280;68528;48.814;8.904;2023-03-16T14:37:48;96308.63;;;10.10;39.73
79127;BME280;68528;48.814;8.904;2023-03-16T14:40:31;96309.00;;;10.08;37.57
79127;BME280;68528;48.814;8.904;2023-03-16T14:42:59;96307.94;;;10.13;37.57
79127;BME280;68528;48.814;8.904;2023-03-16T14:45:36;96305.69;;;10.18;37.06
79127;BME280;68528;48.814;8.904;2023-03-16T14:48:12;96317.66;;;10.10;37.82
79127;BME280;68528;48.814;8.904;2023-03-16T14:50:41;96314.97;;;10.14;35.33
79127;BME280;68528;48.814;8.904;2023-03-16T14:53:08;96316.56;;;10.15;36.94
79127;BME280;68528;48.814;8.904;2023-03-16T14:55:34;96314.84;;;10.07;38.07
79127;BME280;68528;48.814;8.904;2023-03-16T14:58:03;96310.13;;;10.07;36.80
79127;BME280;68528;48.814;8.904;2023-03-16T15:00:29;96313.53;;;10.20;37.94